sensor_id;sensor_type;location;lat;lon;timestamp;pressure;altitude;pressure_sealevel;temperature
63689;BMP280;54895;40.928;14.480;2022-07-23T00:00:47;77959.63;;;-138.40
63689;BMP280;54895;40.928;14.480;2022-07-23T00:03:14;77959.63;;;-138.40
63689;BMP280;54895;40.928;14.480;2022-07-23T00:05:40;77959.63;;;-138.40
63689;BMP280;54895;40.928;14.480;2022-07-23T00:08:07;77959.63;;;-138.40
63689;BMP280;54895;40.928;14.480;2022-07-23T00:10:33;77959.63;;;-138.40
63689;BMP280;54895;40.928;14.480;2022-07-23T00:13:00;77959.63;;;-138.40
63689;BMP280;54895;40.928;14.480;2022-07-23T00:15:26;77959.63;;;-138.40
63689;BMP280;54895;40.928;14.480;2022-07-23T00:17:53;77959.63;;;-138.40
63689;BMP280;54895;40.928;14.480;2022-07-23T00:20:19;77959.63;;;-138.40
63689;BMP280;54895;40.928;14.480;2022-07-23T00:25:59;77959.63;;;-138.40
63689;BMP280;54895;40.928;14.480;2022-07-23T00:28:25;77959.63;;;-138.40
63689;BMP280;54895;40.928;14.480;2022-07-23T00:30:52;77959.63;;;-138.40
63689;BMP280;54895;40.928;14.480;2022-07-23T00:33:18;77959.63;;;-138.40
63689;BMP280;54895;40.928;14.480;2022-07-23T00:35:45;77959.63;;;-138.40
63689;BMP280;54895;40.928;14.480;2022-07-23T00:38:11;77959.63;;;-138.40
63689;BMP280;54895;40.928;14.480;2022-07-23T00:40:39;77959.63;;;-138.40
63689;BMP280;54895;40.928;14.480;2022-07-23T00:43:06;77959.63;;;-138.40
63689;BMP280;54895;40.928;14.480;2022-07-23T00:45:33;77959.63;;;-138.40
63689;BMP280;54895;40.928;14.480;2022-07-23T00:48:02;77959.63;;;-138.40
63689;BMP280;54895;40.928;14.480;2022-07-23T00:50:29;77959.63;;;-138.40
63689;BMP280;54895;40.928;14.480;2022-07-23T00:52:56;77959.63;;;-138.40
63689;BMP280;54895;40.928;14.480;2022-07-23T00:55:23;77959.63;;;-138.40
63689;BMP280;54895;40.928;14.480;2022-07-23T00:57:55;77959.63;;;-138.40
63689;BMP280;54895;40.928;14.480;2022-07-23T01:00:21;77959.63;;;-138.40
63689;BMP280;54895;40.928;14.480;2022-07-23T01:02:48;77959.63;;;-138.40
63689;BMP280;54895;40.928;14.480;2022-07-23T01:05:15;77959.63;;;-138.40
63689;BMP280;54895;40.928;14.480;2022-07-23T01:07:42;77959.63;;;-138.40
63689;BMP280;54895;40.928;14.480;2022-07-23T01:10:09;77959.63;;;-138.40
63689;BMP280;54895;40.928;14.480;2022-07-23T01:13:04;77959.63;;;-138.40
63689;BMP280;54895;40.928;14.480;2022-07-23T01:15:33;77959.63;;;-138.40
63689;BMP280;54895;40.928;14.480;2022-07-23T01:17:59;77959.63;;;-138.40
63689;BMP280;54895;40.928;14.480;2022-07-23T01:20:26;77959.63;;;-138.40
63689;BMP280;54895;40.928;14.480;2022-07-23T01:22:54;77959.63;;;-138.40
63689;BMP280;54895;40.928;14.480;2022-07-23T01:28:05;77959.63;;;-138.40
63689;BMP280;54895;40.928;14.480;2022-07-23T01:30:32;77959.63;;;-138.40
63689;BMP280;54895;40.928;14.480;2022-07-23T01:33:00;77959.63;;;-138.40
63689;BMP280;54895;40.928;14.480;2022-07-23T01:35:27;77959.63;;;-138.40
63689;BMP280;54895;40.928;14.480;2022-07-23T01:37:58;77959.63;;;-138.40
63689;BMP280;54895;40.928;14.480;2022-07-23T01:40:25;77959.63;;;-138.40
63689;BMP280;54895;40.928;14.480;2022-07-23T01:42:52;77959.63;;;-138.40
63689;BMP280;54895;40.928;14.480;2022-07-23T01:45:19;77959.63;;;-138.40
63689;BMP280;54895;40.928;14.480;2022-07-23T01:47:50;77959.63;;;-138.40
63689;BMP280;54895;40.928;14.480;2022-07-23T01:50:18;77959.63;;;-138.40
63689;BMP280;54895;40.928;14.480;2022-07-23T01:53:00;77959.63;;;-138.40
63689;BMP280;54895;40.928;14.480;2022-07-23T01:55:27;77959.63;;;-138.40
63689;BMP280;54895;40.928;14.480;2022-07-23T01:57:53;77959.63;;;-138.40
63689;BMP280;54895;40.928;14.480;2022-07-23T02:00:22;77959.63;;;-138.40
63689;BMP280;54895;40.928;14.480;2022-07-23T02:02:51;77959.63;;;-138.40
63689;BMP280;54895;40.928;14.480;2022-07-23T02:05:21;77959.63;;;-138.40
63689;BMP280;54895;40.928;14.480;2022-07-23T02:07:48;77959.63;;;-138.40
63689;BMP280;54895;40.928;14.480;2022-07-23T02:10:15;77959.63;;;-138.40
63689;BMP280;54895;40.928;14.480;2022-07-23T02:12:41;77959.63;;;-138.40
63689;BMP280;54895;40.928;14.480;2022-07-23T02:15:10;77959.63;;;-138.40
63689;BMP280;54895;40.928;14.480;2022-07-23T02:17:36;77959.63;;;-138.40
63689;BMP280;54895;40.928;14.480;2022-07-23T02:20:04;77959.63;;;-138.40
63689;BMP280;54895;40.928;14.480;2022-07-23T02:22:31;77959.63;;;-138.40
63689;BMP280;54895;40.928;14.480;2022-07-23T02:28:18;77959.63;;;-138.40
63689;BMP280;54895;40.928;14.480;2022-07-23T02:30:45;77959.63;;;-138.40
63689;BMP280;54895;40.928;14.480;2022-07-23T02:33:11;77959.63;;;-138.40
63689;BMP280;54895;40.928;14.480;2022-07-23T02:35:39;77959.63;;;-138.40
63689;BMP280;54895;40.928;14.480;2022-07-23T02:38:07;77959.63;;;-138.40
63689;BMP280;54895;40.928;14.480;2022-07-23T02:40:35;77959.63;;;-138.40
63689;BMP280;54895;40.928;14.480;2022-07-23T02:43:01;77959.63;;;-138.40
63689;BMP280;54895;40.928;14.480;2022-07-23T02:45:28;77959.63;;;-138.40
63689;BMP280;54895;40.928;14.480;2022-07-23T02:47:55;77959.63;;;-138.40
63689;BMP280;54895;40.928;14.480;2022-07-23T02:50:21;77959.63;;;-138.40
63689;BMP280;54895;40.928;14.480;2022-07-23T02:52:49;77959.63;;;-138.40
63689;BMP280;54895;40.928;14.480;2022-07-23T02:55:15;77959.63;;;-138.40
63689;BMP280;54895;40.928;14.480;2022-07-23T02:57:42;77959.63;;;-138.40
63689;BMP280;54895;40.928;14.480;2022-07-23T03:00:09;77959.63;;;-138.40
63689;BMP280;54895;40.928;14.480;2022-07-23T03:02:35;77959.63;;;-138.40
63689;BMP280;54895;40.928;14.480;2022-07-23T03:05:02;77959.63;;;-138.40
63689;BMP280;54895;40.928;14.480;2022-07-23T03:07:29;77959.63;;;-138.40
63689;BMP280;54895;40.928;14.480;2022-07-23T03:09:55;77959.63;;;-138.40
63689;BMP280;54895;40.928;14.480;2022-07-23T03:12:22;77959.63;;;-138.40
63689;BMP280;54895;40.928;14.480;2022-07-23T03:14:50;77959.63;;;-138.40
63689;BMP280;54895;40.928;14.480;2022-07-23T03:17:16;77959.63;;;-138.40
63689;BMP280;54895;40.928;14.480;2022-07-23T03:19:43;77959.63;;;-138.40
63689;BMP280;54895;40.928;14.480;2022-07-23T03:22:09;77959.63;;;-138.40
63689;BMP280;54895;40.928;14.480;2022-07-23T03:24:35;101457.09;;;31.48
63689;BMP280;54895;40.928;14.480;2022-07-23T03:30:30;101454.75;;;30.87
63689;BMP280;54895;40.928;14.480;2022-07-23T03:32:56;101462.63;;;30.99
63689;BMP280;54895;40.928;14.480;2022-07-23T03:35:23;101463.16;;;31.17
63689;BMP280;54895;40.928;14.480;2022-07-23T03:38:04;101467.28;;;30.92
63689;BMP280;54895;40.928;14.480;2022-07-23T03:40:31;101469.50;;;30.98
63689;BMP280;54895;40.928;14.480;2022-07-23T03:42:57;77959.63;;;-138.40
63689;BMP280;54895;40.928;14.480;2022-07-23T03:45:23;77959.63;;;-138.40
63689;BMP280;54895;40.928;14.480;2022-07-23T03:47:50;77959.63;;;-138.40
63689;BMP280;54895;40.928;14.480;2022-07-23T03:50:17;77959.63;;;-138.40
63689;BMP280;54895;40.928;14.480;2022-07-23T03:52:44;77959.63;;;-138.40
63689;BMP280;54895;40.928;14.480;2022-07-23T03:55:12;77959.63;;;-138.40
63689;BMP280;54895;40.928;14.480;2022-07-23T03:57:38;77959.63;;;-138.40
63689;BMP280;54895;40.928;14.480;2022-07-23T04:00:06;77959.63;;;-138.40
63689;BMP280;54895;40.928;14.480;2022-07-23T04:02:39;77959.63;;;-138.40
63689;BMP280;54895;40.928;14.480;2022-07-23T04:05:07;77959.63;;;-138.40
63689;BMP280;54895;40.928;14.480;2022-07-23T04:07:33;77959.63;;;-138.40
63689;BMP280;54895;40.928;14.480;2022-07-23T04:10:00;77959.63;;;-138.40
63689;BMP280;54895;40.928;14.480;2022-07-23T04:12:27;77959.63;;;-138.40
63689;BMP280;54895;40.928;14.480;2022-07-23T04:14:54;77959.63;;;-138.40
63689;BMP280;54895;40.928;14.480;2022-07-23T04:17:21;77959.63;;;-138.40
63689;BMP280;54895;40.928;14.480;2022-07-23T04:19:47;77959.63;;;-138.40
63689;BMP280;54895;40.928;14.480;2022-07-23T04:22:17;77959.63;;;-138.40
63689;BMP280;54895;40.928;14.480;2022-07-23T04:24:43;77959.63;;;-138.40
63689;BMP280;54895;40.928;14.480;2022-07-23T04:27:10;77959.63;;;-138.40
63689;BMP280;54895;40.928;14.480;2022-07-23T04:29:37;77959.63;;;-138.40
63689;BMP280;54895;40.928;14.480;2022-07-23T04:32:04;77959.63;;;-138.40
63689;BMP280;54895;40.928;14.480;2022-07-23T04:34:30;77959.63;;;-138.40
63689;BMP280;54895;40.928;14.480;2022-07-23T04:36:59;77959.63;;;-138.40
63689;BMP280;54895;40.928;14.480;2022-07-23T04:39:27;77959.63;;;-138.40
63689;BMP280;54895;40.928;14.480;2022-07-23T04:41:53;77959.63;;;-138.40
63689;BMP280;54895;40.928;14.480;2022-07-23T04:44:20;77959.63;;;-138.40
63689;BMP280;54895;40.928;14.480;2022-07-23T04:46:48;77959.63;;;-138.40
63689;BMP280;54895;40.928;14.480;2022-07-23T04:49:14;77959.63;;;-138.40
63689;BMP280;54895;40.928;14.480;2022-07-23T04:51:41;77959.63;;;-138.40
63689;BMP280;54895;40.928;14.480;2022-07-23T04:54:08;77959.63;;;-138.40
63689;BMP280;54895;40.928;14.480;2022-07-23T04:56:36;77959.63;;;-138.40
63689;BMP280;54895;40.928;14.480;2022-07-23T04:59:03;77959.63;;;-138.40
63689;BMP280;54895;40.928;14.480;2022-07-23T05:01:32;77959.63;;;-138.40
63689;BMP280;54895;40.928;14.480;2022-07-23T05:03:59;77959.63;;;-138.40
63689;BMP280;54895;40.928;14.480;2022-07-23T05:06:30;77959.63;;;-138.40
63689;BMP280;54895;40.928;14.480;2022-07-23T05:08:57;77959.63;;;-138.40
63689;BMP280;54895;40.928;14.480;2022-07-23T05:11:24;77959.63;;;-138.40
63689;BMP280;54895;40.928;14.480;2022-07-23T05:13:51;77959.63;;;-138.40
63689;BMP280;54895;40.928;14.480;2022-07-23T05:16:20;77959.63;;;-138.40
63689;BMP280;54895;40.928;14.480;2022-07-23T05:18:47;77959.63;;;-138.40
63689;BMP280;54895;40.928;14.480;2022-07-23T05:21:14;77959.63;;;-138.40
63689;BMP280;54895;40.928;14.480;2022-07-23T05:23:43;77959.63;;;-138.40
63689;BMP280;54895;40.928;14.480;2022-07-23T05:26:10;77959.63;;;-138.40
63689;BMP280;54895;40.928;14.480;2022-07-23T05:32:12;77959.63;;;-138.40
63689;BMP280;54895;40.928;14.480;2022-07-23T05:34:45;77959.63;;;-138.40
63689;BMP280;54895;40.928;14.480;2022-07-23T05:37:11;77959.63;;;-138.40
63689;BMP280;54895;40.928;14.480;2022-07-23T05:39:38;77959.63;;;-138.40
63689;BMP280;54895;40.928;14.480;2022-07-23T05:42:04;77959.63;;;-138.40
63689;BMP280;54895;40.928;14.480;2022-07-23T05:44:31;77959.63;;;-138.40
63689;BMP280;54895;40.928;14.480;2022-07-23T05:46:57;77959.63;;;-138.40
63689;BMP280;54895;40.928;14.480;2022-07-23T05:49:26;77959.63;;;-138.40
63689;BMP280;54895;40.928;14.480;2022-07-23T05:52:18;77959.63;;;-138.40
63689;BMP280;54895;40.928;14.480;2022-07-23T05:55:05;77959.63;;;-138.40
63689;BMP280;54895;40.928;14.480;2022-07-23T05:57:32;77959.63;;;-138.40
63689;BMP280;54895;40.928;14.480;2022-07-23T05:59:58;77959.63;;;-138.40
63689;BMP280;54895;40.928;14.480;2022-07-23T06:02:26;77959.63;;;-138.40
63689;BMP280;54895;40.928;14.480;2022-07-23T06:04:52;77959.63;;;-138.40
63689;BMP280;54895;40.928;14.480;2022-07-23T06:07:27;77959.63;;;-138.40
63689;BMP280;54895;40.928;14.480;2022-07-23T06:09:53;77959.63;;;-138.40
63689;BMP280;54895;40.928;14.480;2022-07-23T06:12:20;77959.63;;;-138.40
63689;BMP280;54895;40.928;14.480;2022-07-23T06:14:46;77959.63;;;-138.40
63689;BMP280;54895;40.928;14.480;2022-07-23T06:17:16;77959.63;;;-138.40
63689;BMP280;54895;40.928;14.480;2022-07-23T06:19:43;77959.63;;;-138.40
63689;BMP280;54895;40.928;14.480;2022-07-23T06:22:09;77959.63;;;-138.40
63689;BMP280;54895;40.928;14.480;2022-07-23T06:24:36;77959.63;;;-138.40
63689;BMP280;54895;40.928;14.480;2022-07-23T06:27:03;77959.63;;;-138.40
63689;BMP280;54895;40.928;14.480;2022-07-23T06:33:37;77959.63;;;-138.40
63689;BMP280;54895;40.928;14.480;2022-07-23T06:36:03;101543.88;;;36.10
63689;BMP280;54895;40.928;14.480;2022-07-23T06:38:30;101541.03;;;35.96
63689;BMP280;54895;40.928;14.480;2022-07-23T06:40:56;101547.28;;;35.97
63689;BMP280;54895;40.928;14.480;2022-07-23T06:43:22;101547.50;;;36.37
63689;BMP280;54895;40.928;14.480;2022-07-23T06:45:54;101550.25;;;36.35
63689;BMP280;54895;40.928;14.480;2022-07-23T06:48:21;101541.41;;;36.72
63689;BMP280;54895;40.928;14.480;2022-07-23T06:50:48;101554.56;;;36.73
63689;BMP280;54895;40.928;14.480;2022-07-23T06:53:15;101547.59;;;36.56
63689;BMP280;54895;40.928;14.480;2022-07-23T06:55:43;101548.59;;;35.88
63689;BMP280;54895;40.928;14.480;2022-07-23T06:58:12;101549.59;;;36.38
63689;BMP280;54895;40.928;14.480;2022-07-23T07:00:40;101553.84;;;36.59
63689;BMP280;54895;40.928;14.480;2022-07-23T07:03:06;101558.97;;;35.89
63689;BMP280;54895;40.928;14.480;2022-07-23T07:05:33;101550.84;;;36.15
63689;BMP280;54895;40.928;14.480;2022-07-23T07:08:01;101546.06;;;36.28
63689;BMP280;54895;40.928;14.480;2022-07-23T07:10:30;101547.69;;;36.88
63689;BMP280;54895;40.928;14.480;2022-07-23T07:12:56;101551.84;;;36.79
63689;BMP280;54895;40.928;14.480;2022-07-23T07:15:23;101548.97;;;36.57
63689;BMP280;54895;40.928;14.480;2022-07-23T07:17:49;101542.69;;;36.53
63689;BMP280;54895;40.928;14.480;2022-07-23T07:20:16;101549.91;;;35.79
63689;BMP280;54895;40.928;14.480;2022-07-23T07:22:42;101550.22;;;36.31
63689;BMP280;54895;40.928;14.480;2022-07-23T07:25:08;101541.97;;;36.44
63689;BMP280;54895;40.928;14.480;2022-07-23T07:27:35;101550.31;;;36.43
63689;BMP280;54895;40.928;14.480;2022-07-23T07:30:04;101542.03;;;36.60
63689;BMP280;54895;40.928;14.480;2022-07-23T07:36:08;101546.22;;;36.71
63689;BMP280;54895;40.928;14.480;2022-07-23T07:38:36;101544.13;;;36.58
63689;BMP280;54895;40.928;14.480;2022-07-23T07:41:02;101550.22;;;36.23
63689;BMP280;54895;40.928;14.480;2022-07-23T07:43:29;101546.94;;;36.62
63689;BMP280;54895;40.928;14.480;2022-07-23T07:45:56;101549.06;;;36.79
63689;BMP280;54895;40.928;14.480;2022-07-23T07:48:22;101553.25;;;37.12
63689;BMP280;54895;40.928;14.480;2022-07-23T07:50:48;101557.47;;;37.63
63689;BMP280;54895;40.928;14.480;2022-07-23T07:53:14;101545.66;;;37.78
63689;BMP280;54895;40.928;14.480;2022-07-23T07:55:41;101542.16;;;36.96
63689;BMP280;54895;40.928;14.480;2022-07-23T07:58:07;101541.56;;;35.73
63689;BMP280;54895;40.928;14.480;2022-07-23T08:00:33;101540.50;;;36.24
63689;BMP280;54895;40.928;14.480;2022-07-23T08:03:00;101543.41;;;36.53
63689;BMP280;54895;40.928;14.480;2022-07-23T08:05:28;101543.44;;;36.65
63689;BMP280;54895;40.928;14.480;2022-07-23T08:07:56;101544.22;;;36.86
63689;BMP280;54895;40.928;14.480;2022-07-23T08:10:24;101542.19;;;37.28
63689;BMP280;54895;40.928;14.480;2022-07-23T08:12:53;101541.47;;;36.96
63689;BMP280;54895;40.928;14.480;2022-07-23T08:15:21;101537.19;;;36.55
63689;BMP280;54895;40.928;14.480;2022-07-23T08:17:48;101544.97;;;37.30
63689;BMP280;54895;40.928;14.480;2022-07-23T08:20:17;101542.91;;;37.48
63689;BMP280;54895;40.928;14.480;2022-07-23T08:22:44;101544.97;;;37.42
63689;BMP280;54895;40.928;14.480;2022-07-23T08:25:11;101543.56;;;37.65
63689;BMP280;54895;40.928;14.480;2022-07-23T08:27:39;101537.84;;;38.26
63689;BMP280;54895;40.928;14.480;2022-07-23T08:30:05;101541.31;;;38.27
63689;BMP280;54895;40.928;14.480;2022-07-23T08:35:54;101546.38;;;37.51
63689;BMP280;54895;40.928;14.480;2022-07-23T08:38:22;101535.25;;;37.51
63689;BMP280;54895;40.928;14.480;2022-07-23T08:40:50;101542.16;;;37.95
63689;BMP280;54895;40.928;14.480;2022-07-23T08:43:19;101537.84;;;38.26
63689;BMP280;54895;40.928;14.480;2022-07-23T08:45:48;101536.81;;;38.91
63689;BMP280;54895;40.928;14.480;2022-07-23T08:48:19;101532.50;;;39.06
63689;BMP280;54895;40.928;14.480;2022-07-23T08:50:48;101540.19;;;39.04
63689;BMP280;54895;40.928;14.480;2022-07-23T08:53:16;101543.31;;;38.48
63689;BMP280;54895;40.928;14.480;2022-07-23T08:55:48;101539.19;;;38.37
63689;BMP280;54895;40.928;14.480;2022-07-23T08:58:15;101531.94;;;38.88
63689;BMP280;54895;40.928;14.480;2022-07-23T09:00:42;101535.75;;;39.34
63689;BMP280;54895;40.928;14.480;2022-07-23T09:03:16;101537.56;;;38.86
63689;BMP280;54895;40.928;14.480;2022-07-23T09:05:43;101533.91;;;39.05
63689;BMP280;54895;40.928;14.480;2022-07-23T09:08:13;101540.16;;;39.12
63689;BMP280;54895;40.928;14.480;2022-07-23T09:10:45;101540.59;;;39.38
63689;BMP280;54895;40.928;14.480;2022-07-23T09:13:38;101544.50;;;39.63
63689;BMP280;54895;40.928;14.480;2022-07-23T09:16:11;101547.91;;;38.95
63689;BMP280;54895;40.928;14.480;2022-07-23T09:21:14;101532.03;;;38.82
63689;BMP280;54895;40.928;14.480;2022-07-23T09:23:44;101537.59;;;38.80
63689;BMP280;54895;40.928;14.480;2022-07-23T09:34:09;101541.06;;;38.80
63689;BMP280;54895;40.928;14.480;2022-07-23T09:36:36;101536.38;;;39.43
63689;BMP280;54895;40.928;14.480;2022-07-23T09:39:03;101530.69;;;39.55
63689;BMP280;54895;40.928;14.480;2022-07-23T09:41:41;101540.81;;;39.14
63689;BMP280;54895;40.928;14.480;2022-07-23T09:44:25;101528.91;;;39.22
63689;BMP280;54895;40.928;14.480;2022-07-23T09:46:58;101529.97;;;39.54
63689;BMP280;54895;40.928;14.480;2022-07-23T09:49:24;101528.38;;;39.73
63689;BMP280;54895;40.928;14.480;2022-07-23T09:51:54;101532.75;;;38.72
63689;BMP280;54895;40.928;14.480;2022-07-23T09:56:53;101523.97;;;39.98
63689;BMP280;54895;40.928;14.480;2022-07-23T09:59:24;101523.75;;;39.54
63689;BMP280;54895;40.928;14.480;2022-07-23T10:01:53;101522.06;;;39.81
63689;BMP280;54895;40.928;14.480;2022-07-23T10:04:21;101535.66;;;40.10
63689;BMP280;54895;40.928;14.480;2022-07-23T10:06:58;101517.75;;;39.90
63689;BMP280;54895;40.928;14.480;2022-07-23T10:09:48;101529.25;;;40.18
63689;BMP280;54895;40.928;14.480;2022-07-23T10:12:37;101523.47;;;39.06
63689;BMP280;54895;40.928;14.480;2022-07-23T10:15:22;101518.56;;;39.10
63689;BMP280;54895;40.928;14.480;2022-07-23T10:17:49;101518.34;;;38.34
63689;BMP280;54895;40.928;14.480;2022-07-23T10:20:16;101520.78;;;38.96
63689;BMP280;54895;40.928;14.480;2022-07-23T10:23:29;101514.50;;;39.69
63689;BMP280;54895;40.928;14.480;2022-07-23T10:26:17;101511.59;;;39.81
63689;BMP280;54895;40.928;14.480;2022-07-23T10:28:58;101503.00;;;39.99
63689;BMP280;54895;40.928;14.480;2022-07-23T10:31:58;101513.44;;;39.38
63689;BMP280;54895;40.928;14.480;2022-07-23T10:37:12;101503.22;;;40.35
63689;BMP280;54895;40.928;14.480;2022-07-23T10:39:41;101506.38;;;40.58
63689;BMP280;54895;40.928;14.480;2022-07-23T10:44:45;101505.72;;;40.05
63689;BMP280;54895;40.928;14.480;2022-07-23T10:47:12;101506.66;;;39.86
63689;BMP280;54895;40.928;14.480;2022-07-23T10:49:50;101500.41;;;39.83
63689;BMP280;54895;40.928;14.480;2022-07-23T10:52:26;101498.13;;;39.99
63689;BMP280;54895;40.928;14.480;2022-07-23T10:57:49;101490.00;;;40.78
63689;BMP280;54895;40.928;14.480;2022-07-23T11:00:27;101494.56;;;40.97
63689;BMP280;54895;40.928;14.480;2022-07-23T11:02:56;101493.81;;;40.57
63689;BMP280;54895;40.928;14.480;2022-07-23T11:05:45;101503.22;;;40.35
63689;BMP280;54895;40.928;14.480;2022-07-23T11:08:13;101501.13;;;40.34
63689;BMP280;54895;40.928;14.480;2022-07-23T11:10:47;101494.00;;;40.89
63689;BMP280;54895;40.928;14.480;2022-07-23T11:13:52;101491.31;;;40.39
63689;BMP280;54895;40.928;14.480;2022-07-23T11:16:21;101484.63;;;40.66
63689;BMP280;54895;40.928;14.480;2022-07-23T11:26:56;101469.56;;;42.55
63689;BMP280;54895;40.928;14.480;2022-07-23T11:37:07;101471.25;;;40.72
63689;BMP280;54895;40.928;14.480;2022-07-23T11:39:35;101461.31;;;41.56
63689;BMP280;54895;40.928;14.480;2022-07-23T11:42:03;101458.47;;;41.24
63689;BMP280;54895;40.928;14.480;2022-07-23T11:44:38;101461.75;;;41.34
63689;BMP280;54895;40.928;14.480;2022-07-23T11:47:09;101470.19;;;41.32
63689;BMP280;54895;40.928;14.480;2022-07-23T11:49:38;101470.03;;;41.40
63689;BMP280;54895;40.928;14.480;2022-07-23T11:52:14;101457.78;;;41.92
63689;BMP280;54895;40.928;14.480;2022-07-23T11:57:15;101460.38;;;41.33
63689;BMP280;54895;40.928;14.480;2022-07-23T11:59:43;101465.94;;;41.69
63689;BMP280;54895;40.928;14.480;2022-07-23T12:02:10;101463.66;;;41.78
63689;BMP280;54895;40.928;14.480;2022-07-23T12:04:44;101456.81;;;41.71
63689;BMP280;54895;40.928;14.480;2022-07-23T12:07:33;101466.47;;;41.78
63689;BMP280;54895;40.928;14.480;2022-07-23T12:10:10;101460.09;;;41.49
63689;BMP280;54895;40.928;14.480;2022-07-23T12:12:41;101452.56;;;41.03
63689;BMP280;54895;40.928;14.480;2022-07-23T12:15:10;101456.78;;;41.02
63689;BMP280;54895;40.928;14.480;2022-07-23T12:17:39;101451.00;;;41.12
63689;BMP280;54895;40.928;14.480;2022-07-23T12:20:07;101453.22;;;41.76
63689;BMP280;54895;40.928;14.480;2022-07-23T12:22:42;101458.03;;;41.80
63689;BMP280;54895;40.928;14.480;2022-07-23T12:25:21;101454.22;;;41.93
63689;BMP280;54895;40.928;14.480;2022-07-23T12:33:21;101452.56;;;41.74
63689;BMP280;54895;40.928;14.480;2022-07-23T12:35:48;101446.50;;;41.63
63689;BMP280;54895;40.928;14.480;2022-07-23T12:38:17;101450.22;;;40.77
63689;BMP280;54895;40.928;14.480;2022-07-23T12:40:55;101448.31;;;41.77
63689;BMP280;54895;40.928;14.480;2022-07-23T12:48:59;101452.25;;;41.21
63689;BMP280;54895;40.928;14.480;2022-07-23T12:51:30;101450.28;;;41.14
63689;BMP280;54895;40.928;14.480;2022-07-23T12:56:30;101448.34;;;41.04
63689;BMP280;54895;40.928;14.480;2022-07-23T12:59:03;101457.06;;;40.86
63689;BMP280;54895;40.928;14.480;2022-07-23T13:01:34;101448.88;;;41.15
63689;BMP280;54895;40.928;14.480;2022-07-23T13:04:23;101458.78;;;40.67
63689;BMP280;54895;40.928;14.480;2022-07-23T13:09:20;101453.16;;;41.44
63689;BMP280;54895;40.928;14.480;2022-07-23T13:11:48;101448.66;;;41.61
63689;BMP280;54895;40.928;14.480;2022-07-23T13:14:15;101451.50;;;41.59
63689;BMP280;54895;40.928;14.480;2022-07-23T13:16:45;101437.53;;;40.86
63689;BMP280;54895;40.928;14.480;2022-07-23T13:19:12;101433.59;;;41.46
63689;BMP280;54895;40.928;14.480;2022-07-23T13:21:40;101435.63;;;41.47
63689;BMP280;54895;40.928;14.480;2022-07-23T13:24:07;101435.53;;;41.17
63689;BMP280;54895;40.928;14.480;2022-07-23T13:26:34;101427.41;;;41.05
63689;BMP280;54895;40.928;14.480;2022-07-23T13:29:00;101443.19;;;40.80
63689;BMP280;54895;40.928;14.480;2022-07-23T13:31:26;101437.66;;;40.76
63689;BMP280;54895;40.928;14.480;2022-07-23T13:33:53;101432.09;;;40.76
63689;BMP280;54895;40.928;14.480;2022-07-23T13:36:19;101431.06;;;40.56
63689;BMP280;54895;40.928;14.480;2022-07-23T13:38:45;101426.94;;;41.29
63689;BMP280;54895;40.928;14.480;2022-07-23T13:41:11;101425.97;;;40.68
63689;BMP280;54895;40.928;14.480;2022-07-23T13:43:38;101429.56;;;41.39
63689;BMP280;54895;40.928;14.480;2022-07-23T13:46:04;101431.75;;;40.96
63689;BMP280;54895;40.928;14.480;2022-07-23T13:48:31;101425.47;;;41.32
63689;BMP280;54895;40.928;14.480;2022-07-23T13:50:57;101432.00;;;40.84
63689;BMP280;54895;40.928;14.480;2022-07-23T13:53:24;101424.91;;;40.87
63689;BMP280;54895;40.928;14.480;2022-07-23T13:55:52;101428.69;;;41.10
63689;BMP280;54895;40.928;14.480;2022-07-23T13:58:19;101417.69;;;41.02
63689;BMP280;54895;40.928;14.480;2022-07-23T14:00:49;101429.22;;;41.55
63689;BMP280;54895;40.928;14.480;2022-07-23T14:03:16;101425.63;;;41.24
63689;BMP280;54895;40.928;14.480;2022-07-23T14:05:43;101434.97;;;41.47
63689;BMP280;54895;40.928;14.480;2022-07-23T14:08:10;101431.19;;;41.26
63689;BMP280;54895;40.928;14.480;2022-07-23T14:10:37;101423.34;;;40.98
63689;BMP280;54895;40.928;14.480;2022-07-23T14:13:03;101431.72;;;40.98
63689;BMP280;54895;40.928;14.480;2022-07-23T14:15:31;101431.00;;;41.00
63689;BMP280;54895;40.928;14.480;2022-07-23T14:17:58;101439.09;;;41.50
63689;BMP280;54895;40.928;14.480;2022-07-23T14:20:25;101442.03;;;41.76
63689;BMP280;54895;40.928;14.480;2022-07-23T14:22:52;101446.69;;;41.19
63689;BMP280;54895;40.928;14.480;2022-07-23T14:25:21;101441.41;;;41.39
63689;BMP280;54895;40.928;14.480;2022-07-23T14:27:47;101434.56;;;40.94
63689;BMP280;54895;40.928;14.480;2022-07-23T14:30:14;101430.53;;;41.24
63689;BMP280;54895;40.928;14.480;2022-07-23T14:36:29;101422.19;;;40.85
63689;BMP280;54895;40.928;14.480;2022-07-23T14:38:55;101418.88;;;41.80
63689;BMP280;54895;40.928;14.480;2022-07-23T14:41:22;101417.09;;;41.32
63689;BMP280;54895;40.928;14.480;2022-07-23T14:43:48;101410.91;;;40.91
63689;BMP280;54895;40.928;14.480;2022-07-23T14:46:15;101408.47;;;41.10
63689;BMP280;54895;40.928;14.480;2022-07-23T14:48:41;101407.88;;;41.03
63689;BMP280;54895;40.928;14.480;2022-07-23T14:51:07;101413.47;;;41.03
63689;BMP280;54895;40.928;14.480;2022-07-23T14:53:34;101407.06;;;40.70
63689;BMP280;54895;40.928;14.480;2022-07-23T14:56:00;101407.78;;;41.07
63689;BMP280;54895;40.928;14.480;2022-07-23T14:58:26;101407.38;;;40.55
63689;BMP280;54895;40.928;14.480;2022-07-23T15:00:52;101407.25;;;40.61
63689;BMP280;54895;40.928;14.480;2022-07-23T15:03:20;101404.00;;;40.88
63689;BMP280;54895;40.928;14.480;2022-07-23T15:05:46;101410.25;;;40.49
63689;BMP280;54895;40.928;14.480;2022-07-23T15:08:13;101409.66;;;40.84
63689;BMP280;54895;40.928;14.480;2022-07-23T15:10:39;101409.19;;;41.08
63689;BMP280;54895;40.928;14.480;2022-07-23T15:13:05;101408.53;;;40.67
63689;BMP280;54895;40.928;14.480;2022-07-23T15:15:32;101402.22;;;40.27